createdAt,value
2023-06-30T00:00:16.308Z,54.75
2023-06-30T00:03:05.969Z,54.88
2023-06-30T00:05:32.948Z,54.82
2023-06-30T00:08:00.111Z,54.87
2023-06-30T00:10:27.323Z,54.73
2023-06-30T00:12:54.584Z,54.79
2023-06-30T00:15:21.543Z,54.65
2023-06-30T00:17:49.248Z,54.57
2023-06-30T00:20:16.352Z,54.69
2023-06-30T00:22:43.421Z,54.56
2023-06-30T00:25:12.180Z,54.54
2023-06-30T00:27:40.409Z,54.43
2023-06-30T00:30:07.838Z,54.38
2023-06-30T00:32:34.830Z,54.51
2023-06-30T00:35:01.532Z,54.46
2023-06-30T00:37:28.388Z,54.46
2023-06-30T00:39:55.432Z,54.40
2023-06-30T00:42:24.523Z,54.42
2023-06-30T00:44:51.397Z,54.48
2023-06-30T00:47:19.260Z,54.45
2023-06-30T00:49:46.729Z,54.54
2023-06-30T00:52:13.577Z,54.65
2023-06-30T00:54:41.499Z,54.69
2023-06-30T00:57:08.498Z,54.56
2023-06-30T00:59:35.445Z,54.52
2023-06-30T01:02:10.651Z,54.42
2023-06-30T01:05:06.717Z,54.50
2023-06-30T01:07:36.769Z,54.48
2023-06-30T01:10:11.000Z,54.50
2023-06-30T01:12:38.644Z,54.32
2023-06-30T01:15:07.963Z,54.43
2023-06-30T01:17:40.676Z,54.39
2023-06-30T01:20:11.007Z,54.25
2023-06-30T01:22:51.291Z,54.21
2023-06-30T01:25:21.948Z,54.34
2023-06-30T01:27:49.997Z,54.25
2023-06-30T01:30:18.245Z,54.24
2023-06-30T01:32:47.284Z,54.28
2023-06-30T01:35:14.350Z,54.25
2023-06-30T01:37:41.298Z,54.24
2023-06-30T01:40:09.170Z,54.24
2023-06-30T01:42:38.518Z,54.16
2023-06-30T01:45:08.094Z,54.07
2023-06-30T01:47:36.058Z,54.15
2023-06-30T01:50:03.505Z,54.16
2023-06-30T01:52:30.664Z,54.29
2023-06-30T01:54:58.498Z,54.37
2023-06-30T01:57:25.327Z,54.36
2023-06-30T01:59:52.278Z,54.36
2023-06-30T02:02:19.157Z,54.42
2023-06-30T02:04:46.018Z,54.46
2023-06-30T02:07:12.749Z,54.39
2023-06-30T02:09:47.889Z,54.41
2023-06-30T02:12:16.598Z,54.35
2023-06-30T02:14:43.501Z,54.31
2023-06-30T02:17:11.952Z,54.24
2023-06-30T02:19:38.696Z,54.19
2023-06-30T02:22:05.597Z,54.05
2023-06-30T02:24:32.692Z,54.01
2023-06-30T02:27:00.365Z,53.98
2023-06-30T02:29:27.307Z,54.01
2023-06-30T02:31:54.183Z,54.07
2023-06-30T02:34:22.154Z,53.99
2023-06-30T02:36:49.085Z,53.92
2023-06-30T02:39:17.069Z,53.92
2023-06-30T02:41:43.942Z,53.86
2023-06-30T02:44:10.982Z,53.86
2023-06-30T02:46:38.065Z,53.83
2023-06-30T02:49:04.676Z,53.76
2023-06-30T02:51:31.608Z,53.84
2023-06-30T02:53:58.682Z,53.91
2023-06-30T02:56:25.634Z,53.91
2023-06-30T02:58:52.967Z,53.85
2023-06-30T03:01:22.204Z,53.83
2023-06-30T03:03:50.004Z,53.87
2023-06-30T03:06:17.308Z,53.92
2023-06-30T03:08:45.044Z,53.85
2023-06-30T03:11:12.353Z,53.83
2023-06-30T03:13:39.393Z,53.97
2023-06-30T03:16:08.280Z,54.12
2023-06-30T03:18:35.632Z,54.26
2023-06-30T03:21:03.035Z,54.46
2023-06-30T03:23:30.157Z,54.52
2023-06-30T03:25:57.028Z,54.67
2023-06-30T03:28:24.155Z,54.68
2023-06-30T03:30:50.963Z,54.70
2023-06-30T03:33:18.158Z,54.73
2023-06-30T03:35:47.211Z,54.73
2023-06-30T03:38:14.725Z,54.88
2023-06-30T03:40:41.809Z,55.15
2023-06-30T03:43:08.679Z,55.21
2023-06-30T03:45:35.839Z,55.32
2023-06-30T03:48:02.675Z,55.42
2023-06-30T03:50:29.728Z,55.41
2023-06-30T03:52:58.416Z,55.40
2023-06-30T03:55:25.334Z,55.47
2023-06-30T03:57:52.786Z,55.51
2023-06-30T04:00:20.586Z,55.49
2023-06-30T04:02:47.662Z,55.52
2023-06-30T04:05:14.976Z,55.61
2023-06-30T04:07:42.287Z,55.73
2023-06-30T04:10:09.582Z,55.82
2023-06-30T04:12:36.642Z,55.85
2023-06-30T04:15:05.024Z,55.86
2023-06-30T04:17:31.787Z,55.89
2023-06-30T04:19:58.752Z,55.94
2023-06-30T04:22:25.684Z,56.06
2023-06-30T04:24:52.476Z,56.18
2023-06-30T04:27:19.282Z,56.23
2023-06-30T04:29:46.120Z,56.35
2023-06-30T04:32:12.991Z,56.36
2023-06-30T04:34:40.034Z,56.33
2023-06-30T04:37:07.075Z,56.50
2023-06-30T04:39:33.937Z,56.63
2023-06-30T04:42:01.119Z,56.81
2023-06-30T04:44:28.130Z,56.91
2023-06-30T04:46:55.708Z,56.98
2023-06-30T04:49:22.552Z,56.94
2023-06-30T04:51:49.395Z,57.00
2023-06-30T04:54:16.063Z,57.22
2023-06-30T04:56:42.944Z,57.57
2023-06-30T04:59:10.155Z,57.75
2023-06-30T05:01:36.849Z,57.91
2023-06-30T05:04:03.815Z,58.01
2023-06-30T05:06:30.890Z,58.05
2023-06-30T05:08:57.753Z,58.21
2023-06-30T05:11:24.468Z,58.41
2023-06-30T05:13:51.520Z,58.74
2023-06-30T05:16:18.500Z,58.81
2023-06-30T05:18:45.353Z,58.96
2023-06-30T05:21:12.018Z,59.23
2023-06-30T05:23:38.689Z,59.30
2023-06-30T05:26:06.813Z,59.17
2023-06-30T05:28:35.459Z,59.35
2023-06-30T05:31:03.109Z,59.43
2023-06-30T05:33:30.032Z,59.41
2023-06-30T05:35:56.782Z,59.63
2023-06-30T05:38:23.836Z,59.62
2023-06-30T05:40:50.676Z,59.71
2023-06-30T05:43:18.537Z,59.84
2023-06-30T05:45:45.659Z,59.88
2023-06-30T05:48:12.745Z,60.09
2023-06-30T05:50:42.193Z,60.19
2023-06-30T05:53:09.529Z,60.26
2023-06-30T05:55:36.182Z,60.46
2023-06-30T05:58:03.011Z,60.60
2023-06-30T06:00:29.974Z,60.69
2023-06-30T06:02:57.186Z,60.93
2023-06-30T06:05:24.164Z,61.13
2023-06-30T06:07:50.917Z,61.35
2023-06-30T06:10:17.561Z,61.37
2023-06-30T06:12:44.209Z,61.36
2023-06-30T06:15:11.389Z,61.48
2023-06-30T06:17:38.143Z,61.34
2023-06-30T06:20:05.772Z,61.25
2023-06-30T06:22:32.696Z,61.13
2023-06-30T06:24:59.569Z,61.15
2023-06-30T06:27:26.322Z,60.85
2023-06-30T06:29:53.173Z,60.75
2023-06-30T06:32:19.959Z,60.68
2023-06-30T06:34:46.832Z,60.58
2023-06-30T06:37:13.516Z,60.45
2023-06-30T06:39:40.368Z,60.36
2023-06-30T06:42:07.665Z,60.25
2023-06-30T06:44:34.297Z,60.14
2023-06-30T06:47:38.901Z,60.02
2023-06-30T06:50:05.846Z,59.83
2023-06-30T06:52:33.053Z,59.73
2023-06-30T06:54:59.758Z,59.59
2023-06-30T06:57:26.691Z,59.65
2023-06-30T06:59:53.523Z,59.53
2023-06-30T07:02:20.158Z,59.38
2023-06-30T07:04:46.983Z,59.20
2023-06-30T07:07:13.647Z,59.13
2023-06-30T07:09:40.614Z,59.20
2023-06-30T07:12:08.211Z,59.14
2023-06-30T07:14:36.432Z,59.05
2023-06-30T07:17:03.720Z,59.02
2023-06-30T07:19:30.520Z,58.98
2023-06-30T07:21:57.248Z,58.94
2023-06-30T07:24:24.455Z,58.95
2023-06-30T07:26:51.754Z,58.81
2023-06-30T07:29:18.880Z,58.71
2023-06-30T07:31:47.508Z,58.56
2023-06-30T07:34:15.190Z,58.49
2023-06-30T07:36:42.034Z,58.51
2023-06-30T07:39:08.678Z,58.32
2023-06-30T07:41:35.613Z,58.30
2023-06-30T07:44:03.354Z,58.17
2023-06-30T07:46:31.528Z,57.94
2023-06-30T07:48:58.453Z,57.89
2023-06-30T07:51:25.055Z,57.74
2023-06-30T07:53:51.799Z,57.71
2023-06-30T07:56:18.457Z,57.53
2023-06-30T07:58:45.469Z,57.39
2023-06-30T08:01:12.240Z,57.13
2023-06-30T08:03:39.364Z,57.04
2023-06-30T08:06:06.488Z,56.84
2023-06-30T08:08:33.670Z,56.72
2023-06-30T08:11:00.560Z,56.73
2023-06-30T08:13:27.511Z,56.48
2023-06-30T08:15:54.679Z,56.32
2023-06-30T08:18:30.426Z,56.30
2023-06-30T08:21:03.106Z,56.05
2023-06-30T08:23:30.444Z,55.86
2023-06-30T08:25:57.100Z,55.71
2023-06-30T08:28:24.028Z,55.42
2023-06-30T08:30:51.263Z,54.89
2023-06-30T08:33:30.651Z,54.42
2023-06-30T08:36:05.999Z,54.02
2023-06-30T08:38:32.675Z,53.22
2023-06-30T08:41:00.570Z,52.86
2023-06-30T08:43:29.563Z,52.68
2023-06-30T08:45:56.521Z,52.81
2023-06-30T08:48:24.778Z,52.58
2023-06-30T08:50:53.404Z,52.41
2023-06-30T08:53:23.822Z,52.38
2023-06-30T08:55:51.393Z,52.14
2023-06-30T08:58:26.518Z,52.05
2023-06-30T09:00:54.806Z,51.99
2023-06-30T09:03:23.117Z,51.78
2023-06-30T09:05:59.419Z,51.71
2023-06-30T09:09:10.618Z,51.57
2023-06-30T09:11:39.923Z,51.53
2023-06-30T09:14:08.667Z,51.46
2023-06-30T09:16:36.346Z,51.31
2023-06-30T09:19:04.775Z,51.13
2023-06-30T09:21:31.814Z,50.89
2023-06-30T09:23:58.530Z,50.72
2023-06-30T09:26:31.449Z,50.61
2023-06-30T09:29:00.072Z,50.57
2023-06-30T09:31:34.187Z,50.57
2023-06-30T09:34:14.719Z,50.37
2023-06-30T09:36:48.963Z,50.35
2023-06-30T09:39:16.183Z,50.31
2023-06-30T09:41:44.140Z,50.09
2023-06-30T09:44:12.241Z,50.10
2023-06-30T09:46:50.066Z,49.98
2023-06-30T09:49:27.454Z,50.05
2023-06-30T09:51:56.414Z,49.71
2023-06-30T09:54:39.330Z,49.49
2023-06-30T09:57:11.158Z,49.51
2023-06-30T09:59:38.055Z,49.20
2023-06-30T10:02:05.120Z,48.88
2023-06-30T10:04:32.661Z,48.67
2023-06-30T10:07:02.622Z,48.51
2023-06-30T10:09:30.819Z,48.52
2023-06-30T10:11:59.331Z,48.37
2023-06-30T10:14:31.323Z,48.29
2023-06-30T10:17:01.271Z,48.14
2023-06-30T10:19:32.252Z,48.04
2023-06-30T10:21:59.638Z,47.90
2023-06-30T10:24:28.557Z,48.00
2023-06-30T10:26:58.441Z,47.83
2023-06-30T10:29:25.272Z,47.63
2023-06-30T10:31:51.916Z,47.47
2023-06-30T10:34:19.343Z,47.31
2023-06-30T10:36:46.886Z,47.18
2023-06-30T10:39:14.654Z,46.97
2023-06-30T10:41:51.434Z,46.84
2023-06-30T10:44:21.780Z,46.76
2023-06-30T10:46:48.765Z,46.60
2023-06-30T10:49:39.642Z,46.57
2023-06-30T10:52:30.650Z,46.42
2023-06-30T10:55:06.407Z,46.05
2023-06-30T10:57:39.864Z,45.85
2023-06-30T11:00:10.858Z,45.78
2023-06-30T11:02:47.674Z,45.72
2023-06-30T11:05:21.591Z,45.73
2023-06-30T11:07:50.079Z,45.59
2023-06-30T11:10:35.078Z,45.41
2023-06-30T11:13:05.986Z,45.33
2023-06-30T11:15:43.321Z,45.39
2023-06-30T11:18:15.423Z,45.20
2023-06-30T11:21:01.919Z,44.97
2023-06-30T11:23:33.729Z,44.99
2023-06-30T11:26:18.208Z,44.46
2023-06-30T11:28:50.120Z,44.33
2023-06-30T11:31:17.856Z,44.28
2023-06-30T11:33:46.869Z,44.15
2023-06-30T11:36:18.613Z,44.21
2023-06-30T11:38:50.321Z,44.14
2023-06-30T11:41:24.040Z,44.21
2023-06-30T11:43:54.213Z,44.23
2023-06-30T11:46:22.048Z,44.13
2023-06-30T11:48:50.210Z,43.91
2023-06-30T11:51:20.313Z,43.64
2023-06-30T11:53:47.955Z,43.51
2023-06-30T11:56:14.705Z,43.32
2023-06-30T11:58:49.011Z,43.08
2023-06-30T12:01:16.714Z,42.97
2023-06-30T12:03:43.656Z,42.81
2023-06-30T12:06:10.409Z,42.81
2023-06-30T12:08:39.420Z,42.65
2023-06-30T12:11:09.271Z,42.71
2023-06-30T12:13:41.575Z,42.59
2023-06-30T12:16:08.455Z,41.78
2023-06-30T12:18:37.658Z,41.25
2023-06-30T12:21:12.570Z,41.30
2023-06-30T12:23:43.917Z,41.24
2023-06-30T12:26:14.396Z,41.61
2023-06-30T12:28:43.046Z,41.53
2023-06-30T12:31:10.352Z,41.42
2023-06-30T12:33:37.235Z,41.45
2023-06-30T12:36:06.865Z,41.45
2023-06-30T12:38:33.995Z,41.33
2023-06-30T12:41:01.103Z,41.43
2023-06-30T12:43:28.850Z,41.41
2023-06-30T12:45:55.912Z,41.69
2023-06-30T12:48:23.070Z,41.79
2023-06-30T12:50:50.124Z,41.70
2023-06-30T12:53:17.074Z,42.07
2023-06-30T12:55:44.004Z,41.95
2023-06-30T12:58:11.009Z,41.84
2023-06-30T13:00:38.217Z,41.87
2023-06-30T13:03:05.181Z,41.87
2023-06-30T13:05:32.832Z,41.85
2023-06-30T13:07:59.839Z,41.80
2023-06-30T13:10:28.023Z,41.62
2023-06-30T13:12:58.591Z,41.74
2023-06-30T13:15:26.499Z,41.66
2023-06-30T13:17:53.356Z,41.53
2023-06-30T13:20:20.363Z,41.59
2023-06-30T13:23:03.317Z,41.45
2023-06-30T13:25:33.844Z,41.57
2023-06-30T13:28:00.662Z,41.56
2023-06-30T13:30:28.278Z,41.67
2023-06-30T13:32:55.291Z,41.74
2023-06-30T13:35:22.345Z,41.81
2023-06-30T13:37:50.006Z,41.79
2023-06-30T13:40:16.919Z,42.03
2023-06-30T13:42:43.913Z,41.98
2023-06-30T13:45:11.305Z,41.77
2023-06-30T13:47:38.215Z,41.56
2023-06-30T13:50:06.320Z,41.57
2023-06-30T13:52:33.393Z,41.69
2023-06-30T13:55:00.201Z,41.55
2023-06-30T13:57:26.869Z,41.47
2023-06-30T13:59:53.713Z,41.43
2023-06-30T14:02:21.454Z,41.26
2023-06-30T14:04:48.367Z,41.47
2023-06-30T14:07:15.217Z,41.45
2023-06-30T14:09:42.803Z,41.43
2023-06-30T14:12:09.832Z,41.46
2023-06-30T14:14:36.826Z,41.46
2023-06-30T14:17:04.533Z,41.48
2023-06-30T14:19:31.470Z,41.68
2023-06-30T14:21:58.867Z,41.24
2023-06-30T14:24:25.776Z,41.62
2023-06-30T14:26:52.438Z,41.48
2023-06-30T14:29:19.078Z,41.34
2023-06-30T14:31:45.758Z,40.91
2023-06-30T14:34:12.462Z,40.71
2023-06-30T14:36:40.412Z,40.73
2023-06-30T14:39:07.081Z,40.47
2023-06-30T14:41:33.952Z,40.33
2023-06-30T14:44:01.733Z,40.25
2023-06-30T14:46:29.689Z,40.21
2023-06-30T14:48:56.611Z,40.56
2023-06-30T14:51:23.401Z,40.60
2023-06-30T14:53:50.112Z,40.59
2023-06-30T14:56:16.954Z,40.77
2023-06-30T14:58:44.289Z,41.00
2023-06-30T15:01:11.161Z,41.08
2023-06-30T15:03:37.974Z,40.95
2023-06-30T15:06:05.011Z,41.01
2023-06-30T15:08:31.897Z,41.18
2023-06-30T15:10:58.627Z,41.14
2023-06-30T15:13:25.505Z,40.87
2023-06-30T15:15:52.359Z,40.67
2023-06-30T15:18:19.236Z,40.65
2023-06-30T15:20:46.048Z,40.67
2023-06-30T15:23:13.204Z,40.51
2023-06-30T15:25:40.333Z,40.33
2023-06-30T15:28:08.395Z,40.49
2023-06-30T15:30:35.591Z,40.56
2023-06-30T15:33:08.890Z,40.56
2023-06-30T15:35:36.142Z,40.76
2023-06-30T15:38:02.813Z,40.82
2023-06-30T15:40:29.755Z,41.02
2023-06-30T15:42:56.646Z,41.10
2023-06-30T15:45:23.381Z,40.99
2023-06-30T15:47:53.716Z,40.84
2023-06-30T15:50:20.536Z,41.00
2023-06-30T15:52:47.315Z,41.13
2023-06-30T15:55:15.755Z,41.12
2023-06-30T15:57:43.749Z,41.07
2023-06-30T16:00:11.127Z,41.06
2023-06-30T16:02:42.140Z,40.81
2023-06-30T16:05:09.969Z,41.02
2023-06-30T16:07:37.240Z,40.94
2023-06-30T16:10:05.754Z,40.98
2023-06-30T16:12:32.650Z,40.81
2023-06-30T16:14:59.762Z,41.08
2023-06-30T16:17:26.919Z,40.94
2023-06-30T16:19:53.770Z,40.95
2023-06-30T16:22:21.025Z,40.96
2023-06-30T16:24:47.878Z,41.04
2023-06-30T16:27:14.820Z,40.75
2023-06-30T16:29:41.653Z,41.01
2023-06-30T16:32:08.974Z,40.93
2023-06-30T16:34:37.352Z,41.17
2023-06-30T16:37:04.899Z,40.96
2023-06-30T16:39:31.836Z,41.07
2023-06-30T16:41:58.796Z,41.16
2023-06-30T16:44:28.825Z,41.22
2023-06-30T16:46:55.937Z,41.36
2023-06-30T16:49:22.773Z,41.21
2023-06-30T16:51:49.686Z,41.22
2023-06-30T16:54:16.567Z,41.20
2023-06-30T16:56:43.994Z,41.09
2023-06-30T16:59:10.833Z,41.22
2023-06-30T17:01:37.587Z,41.19
2023-06-30T17:04:04.868Z,41.21
2023-06-30T17:06:31.744Z,41.34
2023-06-30T17:08:58.530Z,41.41
2023-06-30T17:11:25.284Z,41.56
2023-06-30T17:13:52.118Z,41.87
2023-06-30T17:16:18.843Z,42.01
2023-06-30T17:18:46.323Z,42.01
2023-06-30T17:21:13.182Z,42.24
2023-06-30T17:23:40.369Z,42.47
2023-06-30T17:26:08.270Z,42.96
2023-06-30T17:28:36.593Z,43.40
2023-06-30T17:31:03.279Z,43.31
2023-06-30T17:33:29.930Z,43.26
2023-06-30T17:35:56.854Z,43.56
2023-06-30T17:38:24.021Z,43.62
2023-06-30T17:40:51.099Z,43.89
2023-06-30T17:43:17.936Z,44.19
2023-06-30T17:45:45.092Z,44.47
2023-06-30T17:48:12.634Z,44.66
2023-06-30T17:50:39.877Z,44.85
2023-06-30T17:53:06.605Z,45.14
2023-06-30T17:55:33.555Z,45.20
2023-06-30T17:58:00.971Z,45.30
2023-06-30T18:00:28.073Z,45.49
2023-06-30T18:02:54.851Z,45.69
2023-06-30T18:05:21.945Z,45.82
2023-06-30T18:07:48.919Z,46.10
2023-06-30T18:10:16.640Z,46.35
2023-06-30T18:12:43.375Z,46.65
2023-06-30T18:15:11.622Z,46.90
2023-06-30T18:17:38.497Z,47.33
2023-06-30T18:20:06.645Z,47.86
2023-06-30T18:22:33.504Z,48.12
2023-06-30T18:25:00.489Z,48.11
2023-06-30T18:27:27.297Z,48.49
2023-06-30T18:29:54.278Z,48.78
2023-06-30T18:32:21.163Z,49.07
2023-06-30T18:34:49.756Z,49.23
2023-06-30T18:37:16.417Z,49.62
2023-06-30T18:39:43.385Z,49.76
2023-06-30T18:42:10.508Z,49.97
2023-06-30T18:44:37.658Z,50.09
2023-06-30T18:47:06.372Z,50.39
2023-06-30T18:49:33.420Z,50.51
2023-06-30T18:52:00.820Z,50.64
2023-06-30T18:54:27.959Z,50.96
2023-06-30T18:56:55.062Z,51.42
2023-06-30T18:59:22.372Z,51.53
2023-06-30T19:01:49.269Z,51.54
2023-06-30T19:04:16.861Z,51.98
2023-06-30T19:06:44.340Z,51.94
2023-06-30T19:09:11.194Z,52.27
2023-06-30T19:11:38.392Z,52.32
2023-06-30T19:14:05.093Z,52.75
2023-06-30T19:16:31.983Z,53.10
2023-06-30T19:18:58.801Z,53.01
2023-06-30T19:21:25.548Z,53.32
2023-06-30T19:23:52.702Z,53.26
2023-06-30T19:26:21.141Z,53.36
2023-06-30T19:28:49.249Z,53.56
2023-06-30T19:31:16.724Z,53.78
2023-06-30T19:33:43.689Z,54.19
2023-06-30T19:36:10.862Z,54.46
2023-06-30T19:38:37.916Z,54.75
2023-06-30T19:41:04.698Z,55.17
2023-06-30T19:43:31.500Z,55.28
2023-06-30T19:45:59.681Z,55.31
2023-06-30T19:48:26.418Z,55.50
2023-06-30T19:50:53.608Z,55.81
2023-06-30T19:53:20.329Z,56.11
2023-06-30T19:55:47.272Z,56.25
2023-06-30T19:58:14.323Z,56.41
2023-06-30T20:00:41.092Z,56.68
2023-06-30T20:03:08.001Z,56.94
2023-06-30T20:05:36.102Z,57.01
2023-06-30T20:08:03.473Z,57.21
2023-06-30T20:10:30.620Z,57.47
2023-06-30T20:12:57.444Z,57.57
2023-06-30T20:15:24.169Z,57.68
2023-06-30T20:17:50.928Z,57.68
2023-06-30T20:20:17.912Z,57.81
2023-06-30T20:22:46.063Z,57.89
2023-06-30T20:25:14.790Z,58.08
2023-06-30T20:27:43.636Z,58.14
2023-06-30T20:30:13.192Z,58.13
2023-06-30T20:32:39.938Z,58.23
2023-06-30T20:35:09.392Z,58.15
2023-06-30T20:37:36.508Z,58.54
2023-06-30T20:40:03.975Z,58.44
2023-06-30T20:42:31.226Z,58.56
2023-06-30T20:44:58.163Z,58.58
2023-06-30T20:47:25.117Z,58.58
2023-06-30T20:49:52.192Z,58.78
2023-06-30T20:52:19.028Z,58.93
2023-06-30T20:54:46.044Z,59.01
2023-06-30T20:57:12.689Z,59.32
2023-06-30T20:59:39.410Z,59.67
2023-06-30T21:02:06.683Z,59.67
2023-06-30T21:04:33.383Z,59.84
2023-06-30T21:07:00.152Z,59.84
2023-06-30T21:09:27.123Z,60.07
2023-06-30T21:11:53.829Z,60.03
2023-06-30T21:14:21.692Z,60.12
2023-06-30T21:16:48.798Z,60.19
2023-06-30T21:19:16.309Z,59.96
2023-06-30T21:21:43.161Z,60.05
2023-06-30T21:24:10.037Z,60.13
2023-06-30T21:26:40.155Z,60.30
2023-06-30T21:29:07.525Z,60.32
2023-06-30T21:31:34.162Z,60.25
2023-06-30T21:34:01.194Z,60.30
2023-06-30T21:36:28.162Z,60.30
2023-06-30T21:38:55.078Z,60.30
2023-06-30T21:41:22.314Z,60.28
2023-06-30T21:43:49.212Z,60.46
2023-06-30T21:46:16.734Z,60.48
2023-06-30T21:48:44.561Z,60.70
2023-06-30T21:51:11.769Z,60.94
2023-06-30T21:53:38.564Z,61.16
2023-06-30T21:56:05.803Z,61.17
2023-06-30T21:58:33.049Z,61.32
2023-06-30T22:01:00.349Z,61.38
2023-06-30T22:03:27.571Z,61.35
2023-06-30T22:05:55.946Z,61.54
2023-06-30T22:08:25.752Z,61.64
2023-06-30T22:10:55.223Z,61.66
2023-06-30T22:13:22.930Z,61.56
2023-06-30T22:15:49.727Z,61.49
2023-06-30T22:18:16.531Z,61.53
2023-06-30T22:20:43.386Z,61.59
2023-06-30T22:23:10.269Z,61.53
2023-06-30T22:25:37.951Z,61.52
2023-06-30T22:28:04.863Z,61.58
2023-06-30T22:30:32.304Z,61.81
2023-06-30T22:32:59.099Z,61.81
2023-06-30T22:35:25.811Z,61.82
2023-06-30T22:37:52.968Z,61.99
2023-06-30T22:40:20.114Z,62.02
2023-06-30T22:42:48.494Z,62.29
2023-06-30T22:45:15.579Z,62.47
2023-06-30T22:47:42.794Z,62.20
2023-06-30T22:50:10.129Z,62.33
2023-06-30T22:52:39.067Z,62.22
2023-06-30T22:55:07.476Z,62.43
2023-06-30T22:57:34.246Z,62.86
2023-06-30T23:00:01.444Z,62.88
2023-06-30T23:02:28.236Z,62.69
2023-06-30T23:04:55.391Z,62.55
2023-06-30T23:07:22.308Z,62.62
2023-06-30T23:09:49.103Z,62.92
2023-06-30T23:12:15.834Z,62.77
2023-06-30T23:14:42.566Z,62.75
2023-06-30T23:17:15.366Z,62.92
2023-06-30T23:19:48.415Z,63.02
2023-06-30T23:22:19.064Z,62.87
2023-06-30T23:24:50.130Z,62.73
2023-06-30T23:27:18.593Z,62.75
2023-06-30T23:29:49.366Z,62.82
2023-06-30T23:32:19.754Z,62.89
2023-06-30T23:34:48.248Z,63.13
2023-06-30T23:37:17.456Z,63.26
2023-06-30T23:39:47.494Z,63.40
2023-06-30T23:42:14.304Z,63.46
2023-06-30T23:44:41.062Z,63.46
2023-06-30T23:47:16.392Z,63.49
2023-06-30T23:49:43.149Z,63.53
2023-06-30T23:52:10.006Z,63.26
2023-06-30T23:54:36.765Z,63.54
2023-06-30T23:57:04.735Z,63.67
2023-06-30T23:59:31.561Z,63.83
